Austin Straubel International Airport
KGRB : now visible

Airfield :











YOU CAN JOIN US ON...

 
LOGIN :

Register | Disclaimer

   EN    FR    IT 

 









Legend :    VFR   Marginal VFR   IFR   Intensive IFR   Very Intensive IFR
Visi :
Ceiling :
>= 8 km
>= 3000ft
5 to 8 km
1000 to 3000 ft
1500m to 5 km
500 to 1000 ft
800 to 1500m
200 to 500 ft
< 800m
< 200 ft
Symbols :   Thunderstorms  Fog  Heavy snow  Heavy precipitations  Wind > 20 kt







- Airport Elevation : 695 ft
- IATA code : GRB


KGRB - Austin Straubel International

CURRENT METAR :
  • 180553Z AUTO 02013KT 10SM FEW029 FEW070 OVC090 M06/M11 A3009 RMK AO2 SNB0459E16 SLP200 P0000 60000 T10611106 11050 21061 410441089 53015 $

EXPIRED METARs :
  • 180453Z 03016G28KT 10SM FEW023 SCT031 OVC039 M06/M11 A3007 RMK AO2 PK WND 03028/0453 SNE46 SLP194 P0000 T10611106 $
  • 180439Z 03017KT 8SM -SN FEW022 BKN031 OVC039 M06/M10 A3007 RMK AO2 PK WND 03026/0417 P0000 T10561100 $
  • 180353Z 02016G24KT 6SM -SN OVC026 M06/M10 A3005 RMK AO2 SNB15 SLP189 P0000 T10561100 $
  • 180331Z 03018G23KT 8SM -SN OVC028 M05/M10 A3005 RMK AO2 SNB15 P0000 T10501100 $
  • 180253Z 03017KT 10SM SCT033 OVC050 M05/M11 A3004 RMK AO2 SLP184 T10501106 52015 $

TAF KGRB
Valid from the 18 at 06:00 until the 19 at 06:00 UTC


180540Z 1806/1906 01012G20KT P6SM SCT035 BKN100
FM181400 36009KT P6SM SCT035 SCT100
FM182100 31005KT P6SM SKC
KZMP FIR / North America



MET'MAP, your aeronautical weather chart ! - Copyright ORBIFLY December 2007 - Disclaimer

ORBIFLY MET'MAP TEAM :

Programming & Development : Alexandra Zaïnal
Concept & Development : Baudouin d'Aumeries
Co-Development & Prog : Marc-Olivier Méhu
Technical & hardware support : Manuel Goepfert

Contact : metmap@orbifly.com




SOURCES & CREDITS :

   NOAA       Earth
Advisory